sensor_id;sensor_type;location;lat;lon;timestamp;temperature;humidity
27368;DHT22;14839;48.106;11.618;2023-05-16T04:01:29;10.00;94.60
27368;DHT22;14839;48.106;11.618;2023-05-16T04:03:55;10.00;94.60
27368;DHT22;14839;48.106;11.618;2023-05-16T04:06:21;10.00;94.60
27368;DHT22;14839;48.106;11.618;2023-05-16T04:08:46;10.00;94.60
27368;DHT22;14839;48.106;11.618;2023-05-16T04:11:12;10.10;94.60
27368;DHT22;14839;48.106;11.618;2023-05-16T04:13:37;10.10;94.60
27368;DHT22;14839;48.106;11.618;2023-05-16T04:16:04;10.10;94.60
27368;DHT22;14839;48.106;11.618;2023-05-16T04:18:30;10.10;94.60
27368;DHT22;14839;48.106;11.618;2023-05-16T04:20:55;10.10;94.60
27368;DHT22;14839;48.106;11.618;2023-05-16T04:23:21;10.10;94.60
27368;DHT22;14839;48.106;11.618;2023-05-16T04:25:47;10.10;94.60
27368;DHT22;14839;48.106;11.618;2023-05-16T04:28:12;10.10;94.60
27368;DHT22;14839;48.106;11.618;2023-05-16T04:30:38;10.10;94.60
27368;DHT22;14839;48.106;11.618;2023-05-16T04:33:04;10.10;94.60
27368;DHT22;14839;48.106;11.618;2023-05-16T04:35:30;10.20;94.60
27368;DHT22;14839;48.106;11.618;2023-05-16T04:37:56;10.20;94.60
27368;DHT22;14839;48.106;11.618;2023-05-16T04:40:21;10.20;94.60
27368;DHT22;14839;48.106;11.618;2023-05-16T04:42:51;10.20;94.60
27368;DHT22;14839;48.106;11.618;2023-05-16T04:45:18;10.20;94.60
27368;DHT22;14839;48.106;11.618;2023-05-16T04:47:45;10.20;94.60
27368;DHT22;14839;48.106;11.618;2023-05-16T04:50:11;10.30;94.60
27368;DHT22;14839;48.106;11.618;2023-05-16T04:52:37;10.30;94.60
27368;DHT22;14839;48.106;11.618;2023-05-16T04:55:03;10.40;94.60
27368;DHT22;14839;48.106;11.618;2023-05-16T04:57:29;10.40;94.60
27368;DHT22;14839;48.106;11.618;2023-05-16T04:59:55;10.40;94.60
27368;DHT22;14839;48.106;11.618;2023-05-16T05:02:20;10.40;94.60
27368;DHT22;14839;48.106;11.618;2023-05-16T05:04:49;10.40;94.60
27368;DHT22;14839;48.106;11.618;2023-05-16T05:07:15;10.40;94.60
27368;DHT22;14839;48.106;11.618;2023-05-16T05:09:40;10.50;94.60
27368;DHT22;14839;48.106;11.618;2023-05-16T05:12:07;10.50;94.60
27368;DHT22;14839;48.106;11.618;2023-05-16T05:14:33;10.50;94.60
27368;DHT22;14839;48.106;11.618;2023-05-16T05:16:59;10.60;94.60
27368;DHT22;14839;48.106;11.618;2023-05-16T05:19:26;10.50;94.60
27368;DHT22;14839;48.106;11.618;2023-05-16T05:21:51;10.50;94.60
27368;DHT22;14839;48.106;11.618;2023-05-16T05:24:17;10.60;94.60
27368;DHT22;14839;48.106;11.618;2023-05-16T05:26:43;10.60;94.60
27368;DHT22;14839;48.106;11.618;2023-05-16T05:29:09;10.50;94.60
27368;DHT22;14839;48.106;11.618;2023-05-16T05:31:34;10.50;94.60
27368;DHT22;14839;48.106;11.618;2023-05-16T05:34:01;10.60;94.60
27368;DHT22;14839;48.106;11.618;2023-05-16T05:36:27;10.70;94.60
27368;DHT22;14839;48.106;11.618;2023-05-16T05:38:52;10.70;94.60
27368;DHT22;14839;48.106;11.618;2023-05-16T05:41:18;10.70;94.60
27368;DHT22;14839;48.106;11.618;2023-05-16T05:43:44;10.70;94.60
27368;DHT22;14839;48.106;11.618;2023-05-16T05:46:09;10.70;94.60
27368;DHT22;14839;48.106;11.618;2023-05-16T05:48:35;10.70;94.60
27368;DHT22;14839;48.106;11.618;2023-05-16T05:51:01;10.80;94.60
27368;DHT22;14839;48.106;11.618;2023-05-16T05:53:26;10.80;94.60
27368;DHT22;14839;48.106;11.618;2023-05-16T05:55:52;11.00;94.60
27368;DHT22;14839;48.106;11.618;2023-05-16T05:58:19;11.10;94.60
27368;DHT22;14839;48.106;11.618;2023-05-16T06:00:45;11.30;94.60
27368;DHT22;14839;48.106;11.618;2023-05-16T06:03:10;11.30;94.60
27368;DHT22;14839;48.106;11.618;2023-05-16T06:05:36;11.40;94.60
27368;DHT22;14839;48.106;11.618;2023-05-16T06:08:02;11.50;94.60
27368;DHT22;14839;48.106;11.618;2023-05-16T06:10:27;11.60;94.60
27368;DHT22;14839;48.106;11.618;2023-05-16T06:12:53;11.60;94.60
27368;DHT22;14839;48.106;11.618;2023-05-16T06:15:18;11.60;94.60
27368;DHT22;14839;48.106;11.618;2023-05-16T06:17:44;11.70;94.60
27368;DHT22;14839;48.106;11.618;2023-05-16T06:20:10;11.70;94.60
27368;DHT22;14839;48.106;11.618;2023-05-16T06:22:36;11.80;94.60
27368;DHT22;14839;48.106;11.618;2023-05-16T06:25:02;11.70;94.60
27368;DHT22;14839;48.106;11.618;2023-05-16T06:27:31;11.80;94.60
27368;DHT22;14839;48.106;11.618;2023-05-16T06:29:56;12.00;94.60
27368;DHT22;14839;48.106;11.618;2023-05-16T06:32:22;12.10;94.60
27368;DHT22;14839;48.106;11.618;2023-05-16T06:34:48;12.10;94.60
27368;DHT22;14839;48.106;11.618;2023-05-16T06:37:13;12.10;94.60
27368;DHT22;14839;48.106;11.618;2023-05-16T06:39:39;12.30;94.60
27368;DHT22;14839;48.106;11.618;2023-05-16T06:42:05;12.40;94.60
27368;DHT22;14839;48.106;11.618;2023-05-16T06:44:31;12.50;94.60
27368;DHT22;14839;48.106;11.618;2023-05-16T06:46:56;12.40;94.60
27368;DHT22;14839;48.106;11.618;2023-05-16T06:49:23;12.30;94.60
27368;DHT22;14839;48.106;11.618;2023-05-16T06:51:48;12.40;94.60
27368;DHT22;14839;48.106;11.618;2023-05-16T06:54:14;12.30;94.60
27368;DHT22;14839;48.106;11.618;2023-05-16T06:56:39;12.30;94.60
27368;DHT22;14839;48.106;11.618;2023-05-16T06:59:05;12.30;94.60
27368;DHT22;14839;48.106;11.618;2023-05-16T07:01:33;12.20;94.60
27368;DHT22;14839;48.106;11.618;2023-05-16T07:03:59;12.30;94.60
27368;DHT22;14839;48.106;11.618;2023-05-16T07:06:24;12.30;94.60
27368;DHT22;14839;48.106;11.618;2023-05-16T07:08:51;12.30;94.60
27368;DHT22;14839;48.106;11.618;2023-05-16T07:11:16;12.40;94.60
27368;DHT22;14839;48.106;11.618;2023-05-16T07:13:42;12.50;94.60
27368;DHT22;14839;48.106;11.618;2023-05-16T07:16:07;12.50;94.60
27368;DHT22;14839;48.106;11.618;2023-05-16T07:18:33;12.50;94.60
27368;DHT22;14839;48.106;11.618;2023-05-16T07:20:59;12.50;94.60
27368;DHT22;14839;48.106;11.618;2023-05-16T07:23:25;12.60;94.60
27368;DHT22;14839;48.106;11.618;2023-05-16T07:25:50;12.60;94.60
27368;DHT22;14839;48.106;11.618;2023-05-16T07:28:17;12.50;94.60
27368;DHT22;14839;48.106;11.618;2023-05-16T07:30:43;12.50;94.60
27368;DHT22;14839;48.106;11.618;2023-05-16T07:33:09;12.30;94.60
27368;DHT22;14839;48.106;11.618;2023-05-16T07:35:34;12.10;94.60
27368;DHT22;14839;48.106;11.618;2023-05-16T07:38:00;12.00;94.60
27368;DHT22;14839;48.106;11.618;2023-05-16T07:40:26;12.00;94.60
27368;DHT22;14839;48.106;11.618;2023-05-16T07:42:53;12.00;94.60
27368;DHT22;14839;48.106;11.618;2023-05-16T07:45:19;12.00;94.60
27368;DHT22;14839;48.106;11.618;2023-05-16T07:47:45;11.90;94.60
27368;DHT22;14839;48.106;11.618;2023-05-16T07:50:10;11.90;94.60
27368;DHT22;14839;48.106;11.618;2023-05-16T07:52:36;11.80;94.60
27368;DHT22;14839;48.106;11.618;2023-05-16T07:55:02;11.80;94.60
27368;DHT22;14839;48.106;11.618;2023-05-16T07:57:28;11.90;94.60
27368;DHT22;14839;48.106;11.618;2023-05-16T07:59:54;11.90;94.60
27368;DHT22;14839;48.106;11.618;2023-05-16T08:02:21;11.80;94.60
27368;DHT22;14839;48.106;11.618;2023-05-16T08:04:48;11.90;94.60
27368;DHT22;14839;48.106;11.618;2023-05-16T08:07:14;11.90;94.60
27368;DHT22;14839;48.106;11.618;2023-05-16T08:09:40;12.00;94.60
27368;DHT22;14839;48.106;11.618;2023-05-16T08:12:06;12.00;94.60
27368;DHT22;14839;48.106;11.618;2023-05-16T08:14:32;12.00;94.60
27368;DHT22;14839;48.106;11.618;2023-05-16T08:16:58;12.00;94.60
27368;DHT22;14839;48.106;11.618;2023-05-16T08:19:25;12.10;94.60
27368;DHT22;14839;48.106;11.618;2023-05-16T08:21:51;12.20;94.60
27368;DHT22;14839;48.106;11.618;2023-05-16T08:24:16;12.30;94.60
27368;DHT22;14839;48.106;11.618;2023-05-16T08:26:42;12.50;94.60
27368;DHT22;14839;48.106;11.618;2023-05-16T08:29:08;12.50;94.60
27368;DHT22;14839;48.106;11.618;2023-05-16T08:31:33;12.60;94.60
27368;DHT22;14839;48.106;11.618;2023-05-16T08:33:59;12.60;94.60
27368;DHT22;14839;48.106;11.618;2023-05-16T08:36:26;12.70;94.60
27368;DHT22;14839;48.106;11.618;2023-05-16T08:38:55;12.60;94.60
27368;DHT22;14839;48.106;11.618;2023-05-16T08:41:24;12.70;94.60
27368;DHT22;14839;48.106;11.618;2023-05-16T08:43:50;12.70;94.60
27368;DHT22;14839;48.106;11.618;2023-05-16T08:46:20;12.70;94.60
27368;DHT22;14839;48.106;11.618;2023-05-16T08:48:51;12.90;94.60
27368;DHT22;14839;48.106;11.618;2023-05-16T08:51:24;13.00;94.60
27368;DHT22;14839;48.106;11.618;2023-05-16T08:53:56;13.10;94.60
27368;DHT22;14839;48.106;11.618;2023-05-16T08:56:24;13.20;94.60
27368;DHT22;14839;48.106;11.618;2023-05-16T08:58:51;13.00;94.60
27368;DHT22;14839;48.106;11.618;2023-05-16T09:01:21;12.80;94.60
27368;DHT22;14839;48.106;11.618;2023-05-16T09:03:48;13.00;94.60
27368;DHT22;14839;48.106;11.618;2023-05-16T09:06:14;13.00;94.60
27368;DHT22;14839;48.106;11.618;2023-05-16T09:08:41;12.90;94.60
27368;DHT22;14839;48.106;11.618;2023-05-16T09:11:07;12.80;94.60
27368;DHT22;14839;48.106;11.618;2023-05-16T09:13:33;12.90;94.60
27368;DHT22;14839;48.106;11.618;2023-05-16T09:16:13;13.10;94.60
27368;DHT22;14839;48.106;11.618;2023-05-16T09:18:41;13.30;94.60
27368;DHT22;14839;48.106;11.618;2023-05-16T09:21:08;13.60;94.60
27368;DHT22;14839;48.106;11.618;2023-05-16T09:23:35;13.90;94.60
27368;DHT22;14839;48.106;11.618;2023-05-16T09:26:01;14.30;94.60
27368;DHT22;14839;48.106;11.618;2023-05-16T09:28:29;14.70;94.60
27368;DHT22;14839;48.106;11.618;2023-05-16T09:30:55;15.10;94.60
27368;DHT22;14839;48.106;11.618;2023-05-16T09:33:25;15.50;94.60
27368;DHT22;14839;48.106;11.618;2023-05-16T09:35:59;16.00;94.60
27368;DHT22;14839;48.106;11.618;2023-05-16T09:38:26;16.40;93.70
27368;DHT22;14839;48.106;11.618;2023-05-16T09:40:53;16.60;92.70
27368;DHT22;14839;48.106;11.618;2023-05-16T09:43:24;16.50;93.90
27368;DHT22;14839;48.106;11.618;2023-05-16T09:45:50;16.40;93.10
27368;DHT22;14839;48.106;11.618;2023-05-16T09:48:20;16.30;94.60
27368;DHT22;14839;48.106;11.618;2023-05-16T09:50:48;16.20;94.60
27368;DHT22;14839;48.106;11.618;2023-05-16T09:53:26;16.20;93.60
27368;DHT22;14839;48.106;11.618;2023-05-16T09:56:06;16.30;94.60
27368;DHT22;14839;48.106;11.618;2023-05-16T09:58:34;16.20;94.40
27368;DHT22;14839;48.106;11.618;2023-05-16T10:01:01;16.20;93.00
27368;DHT22;14839;48.106;11.618;2023-05-16T10:03:28;16.20;94.50
27368;DHT22;14839;48.106;11.618;2023-05-16T10:05:54;16.20;93.70
27368;DHT22;14839;48.106;11.618;2023-05-16T10:08:22;16.10;94.60
27368;DHT22;14839;48.106;11.618;2023-05-16T10:10:55;15.80;94.60
27368;DHT22;14839;48.106;11.618;2023-05-16T10:13:28;15.60;94.60
27368;DHT22;14839;48.106;11.618;2023-05-16T10:15:57;15.20;94.60
27368;DHT22;14839;48.106;11.618;2023-05-16T10:18:30;15.20;94.60
27368;DHT22;14839;48.106;11.618;2023-05-16T10:21:01;14.90;94.60
27368;DHT22;14839;48.106;11.618;2023-05-16T10:23:30;14.80;94.60
27368;DHT22;14839;48.106;11.618;2023-05-16T10:25:59;14.80;94.60
27368;DHT22;14839;48.106;11.618;2023-05-16T10:28:26;14.90;94.60
27368;DHT22;14839;48.106;11.618;2023-05-16T10:30:53;15.00;94.60
27368;DHT22;14839;48.106;11.618;2023-05-16T10:33:19;15.20;94.60
27368;DHT22;14839;48.106;11.618;2023-05-16T10:35:45;15.10;94.60
27368;DHT22;14839;48.106;11.618;2023-05-16T10:38:14;15.00;94.60
27368;DHT22;14839;48.106;11.618;2023-05-16T10:40:41;14.80;94.60
27368;DHT22;14839;48.106;11.618;2023-05-16T10:43:08;14.60;94.60
27368;DHT22;14839;48.106;11.618;2023-05-16T10:45:40;14.40;94.60
27368;DHT22;14839;48.106;11.618;2023-05-16T10:48:06;14.30;94.60
27368;DHT22;14839;48.106;11.618;2023-05-16T10:50:42;14.10;94.60
27368;DHT22;14839;48.106;11.618;2023-05-16T11:06:24;13.30;94.60
27368;DHT22;14839;48.106;11.618;2023-05-16T11:11:45;13.40;94.60
27368;DHT22;14839;48.106;11.618;2023-05-16T11:14:25;13.30;94.60
27368;DHT22;14839;48.106;11.618;2023-05-16T11:24:30;12.90;94.60
27368;DHT22;14839;48.106;11.618;2023-05-16T11:27:00;12.80;94.60
27368;DHT22;14839;48.106;11.618;2023-05-16T11:29:27;12.80;94.60
27368;DHT22;14839;48.106;11.618;2023-05-16T11:31:53;12.90;94.60
27368;DHT22;14839;48.106;11.618;2023-05-16T11:34:19;13.00;94.60
27368;DHT22;14839;48.106;11.618;2023-05-16T11:36:45;13.10;94.60
27368;DHT22;14839;48.106;11.618;2023-05-16T11:39:11;13.20;94.60
27368;DHT22;14839;48.106;11.618;2023-05-16T11:41:37;13.40;94.60
27368;DHT22;14839;48.106;11.618;2023-05-16T11:44:03;13.40;94.60
27368;DHT22;14839;48.106;11.618;2023-05-16T11:46:32;13.60;94.60
27368;DHT22;14839;48.106;11.618;2023-05-16T11:48:58;13.60;94.60
27368;DHT22;14839;48.106;11.618;2023-05-16T11:51:23;13.70;94.60
27368;DHT22;14839;48.106;11.618;2023-05-16T11:53:50;13.70;94.60
27368;DHT22;14839;48.106;11.618;2023-05-16T11:56:16;13.70;94.60
27368;DHT22;14839;48.106;11.618;2023-05-16T11:58:43;13.80;94.60
27368;DHT22;14839;48.106;11.618;2023-05-16T12:01:10;13.80;94.60
27368;DHT22;14839;48.106;11.618;2023-05-16T12:03:35;13.70;94.60
27368;DHT22;14839;48.106;11.618;2023-05-16T12:06:03;13.70;94.60
27368;DHT22;14839;48.106;11.618;2023-05-16T12:08:28;13.90;94.60
27368;DHT22;14839;48.106;11.618;2023-05-16T12:10:55;13.90;94.60
27368;DHT22;14839;48.106;11.618;2023-05-16T12:13:23;14.00;94.60
27368;DHT22;14839;48.106;11.618;2023-05-16T12:15:50;14.00;94.60
27368;DHT22;14839;48.106;11.618;2023-05-16T12:18:17;13.90;94.60
27368;DHT22;14839;48.106;11.618;2023-05-16T12:20:43;14.00;94.60
27368;DHT22;14839;48.106;11.618;2023-05-16T12:23:11;14.20;94.60
27368;DHT22;14839;48.106;11.618;2023-05-16T12:25:37;14.20;94.60
27368;DHT22;14839;48.106;11.618;2023-05-16T12:28:08;14.30;94.60
27368;DHT22;14839;48.106;11.618;2023-05-16T12:30:40;14.40;94.60
27368;DHT22;14839;48.106;11.618;2023-05-16T12:33:10;14.50;94.60
27368;DHT22;14839;48.106;11.618;2023-05-16T12:35:39;14.80;94.60
27368;DHT22;14839;48.106;11.618;2023-05-16T12:38:06;14.90;94.60
27368;DHT22;14839;48.106;11.618;2023-05-16T12:40:32;15.10;94.60
27368;DHT22;14839;48.106;11.618;2023-05-16T12:42:58;15.20;94.60
27368;DHT22;14839;48.106;11.618;2023-05-16T12:45:26;15.20;94.60
27368;DHT22;14839;48.106;11.618;2023-05-16T12:47:52;15.30;94.60
27368;DHT22;14839;48.106;11.618;2023-05-16T12:50:18;15.40;94.60
27368;DHT22;14839;48.106;11.618;2023-05-16T12:52:53;15.40;94.60
27368;DHT22;14839;48.106;11.618;2023-05-16T12:55:21;15.70;94.60
27368;DHT22;14839;48.106;11.618;2023-05-16T12:57:48;15.60;94.60
27368;DHT22;14839;48.106;11.618;2023-05-16T13:00:17;15.60;94.60
27368;DHT22;14839;48.106;11.618;2023-05-16T13:02:44;15.60;94.60
27368;DHT22;14839;48.106;11.618;2023-05-16T13:05:10;15.70;94.60
27368;DHT22;14839;48.106;11.618;2023-05-16T13:07:36;15.70;94.60
27368;DHT22;14839;48.106;11.618;2023-05-16T13:10:06;15.60;94.60
27368;DHT22;14839;48.106;11.618;2023-05-16T13:12:34;15.60;94.60
27368;DHT22;14839;48.106;11.618;2023-05-16T13:15:00;15.50;94.60
27368;DHT22;14839;48.106;11.618;2023-05-16T13:17:25;15.60;94.60
27368;DHT22;14839;48.106;11.618;2023-05-16T13:19:51;15.70;94.60
27368;DHT22;14839;48.106;11.618;2023-05-16T13:22:17;15.60;94.60
27368;DHT22;14839;48.106;11.618;2023-05-16T13:24:42;15.80;94.60
27368;DHT22;14839;48.106;11.618;2023-05-16T13:27:08;15.80;94.60
27368;DHT22;14839;48.106;11.618;2023-05-16T13:29:34;15.90;94.60
27368;DHT22;14839;48.106;11.618;2023-05-16T13:31:59;16.10;94.60
27368;DHT22;14839;48.106;11.618;2023-05-16T13:34:25;16.00;94.60
27368;DHT22;14839;48.106;11.618;2023-05-16T13:36:50;15.90;94.60
27368;DHT22;14839;48.106;11.618;2023-05-16T13:39:16;15.60;94.60
27368;DHT22;14839;48.106;11.618;2023-05-16T13:41:42;15.60;94.60
27368;DHT22;14839;48.106;11.618;2023-05-16T13:44:08;15.40;94.60
27368;DHT22;14839;48.106;11.618;2023-05-16T13:46:34;15.20;94.60
27368;DHT22;14839;48.106;11.618;2023-05-16T13:49:00;15.10;94.60
27368;DHT22;14839;48.106;11.618;2023-05-16T13:51:26;14.70;94.60
27368;DHT22;14839;48.106;11.618;2023-05-16T13:53:51;14.40;94.60
27368;DHT22;14839;48.106;11.618;2023-05-16T13:56:17;14.00;94.60
27368;DHT22;14839;48.106;11.618;2023-05-16T13:58:42;13.80;94.60
27368;DHT22;14839;48.106;11.618;2023-05-16T14:01:08;13.80;94.60
27368;DHT22;14839;48.106;11.618;2023-05-16T14:03:34;13.70;94.60
27368;DHT22;14839;48.106;11.618;2023-05-16T14:06:01;13.60;94.60
27368;DHT22;14839;48.106;11.618;2023-05-16T14:08:27;13.40;94.60
27368;DHT22;14839;48.106;11.618;2023-05-16T14:10:53;13.20;94.60
27368;DHT22;14839;48.106;11.618;2023-05-16T14:13:19;13.00;94.60
27368;DHT22;14839;48.106;11.618;2023-05-16T14:15:44;12.90;94.60
27368;DHT22;14839;48.106;11.618;2023-05-16T14:18:10;12.80;94.60
27368;DHT22;14839;48.106;11.618;2023-05-16T14:20:35;12.60;94.60
27368;DHT22;14839;48.106;11.618;2023-05-16T14:23:01;12.60;94.60
27368;DHT22;14839;48.106;11.618;2023-05-16T14:25:26;12.60;94.60
27368;DHT22;14839;48.106;11.618;2023-05-16T14:27:53;12.40;94.60
27368;DHT22;14839;48.106;11.618;2023-05-16T14:30:18;12.30;94.60
27368;DHT22;14839;48.106;11.618;2023-05-16T14:32:44;12.30;94.60
27368;DHT22;14839;48.106;11.618;2023-05-16T14:35:10;12.20;94.60
27368;DHT22;14839;48.106;11.618;2023-05-16T14:37:36;12.10;94.60
27368;DHT22;14839;48.106;11.618;2023-05-16T14:40:01;12.10;94.60
27368;DHT22;14839;48.106;11.618;2023-05-16T14:42:27;12.10;94.60
27368;DHT22;14839;48.106;11.618;2023-05-16T14:44:52;12.10;94.60
27368;DHT22;14839;48.106;11.618;2023-05-16T14:47:18;12.00;94.60
27368;DHT22;14839;48.106;11.618;2023-05-16T14:49:43;11.90;94.60
27368;DHT22;14839;48.106;11.618;2023-05-16T14:52:09;11.90;94.60
27368;DHT22;14839;48.106;11.618;2023-05-16T14:54:35;11.90;94.60
27368;DHT22;14839;48.106;11.618;2023-05-16T14:57:01;11.90;94.60
27368;DHT22;14839;48.106;11.618;2023-05-16T14:59:28;11.90;94.60
27368;DHT22;14839;48.106;11.618;2023-05-16T15:01:54;11.80;94.60
27368;DHT22;14839;48.106;11.618;2023-05-16T15:04:19;11.80;94.60
27368;DHT22;14839;48.106;11.618;2023-05-16T15:06:45;11.80;94.60
27368;DHT22;14839;48.106;11.618;2023-05-16T15:09:11;11.70;94.60
27368;DHT22;14839;48.106;11.618;2023-05-16T15:11:38;11.80;94.60
27368;DHT22;14839;48.106;11.618;2023-05-16T15:14:03;11.80;94.60
27368;DHT22;14839;48.106;11.618;2023-05-16T15:16:29;11.90;94.60
27368;DHT22;14839;48.106;11.618;2023-05-16T15:18:55;11.80;94.60
27368;DHT22;14839;48.106;11.618;2023-05-16T15:21:21;11.90;94.60
27368;DHT22;14839;48.106;11.618;2023-05-16T15:23:47;11.80;94.60
27368;DHT22;14839;48.106;11.618;2023-05-16T15:26:15;11.80;94.60
27368;DHT22;14839;48.106;11.618;2023-05-16T15:28:41;11.90;94.60
27368;DHT22;14839;48.106;11.618;2023-05-16T15:31:07;11.80;94.60
27368;DHT22;14839;48.106;11.618;2023-05-16T15:33:32;11.80;94.60
27368;DHT22;14839;48.106;11.618;2023-05-16T15:35:58;11.80;94.60
27368;DHT22;14839;48.106;11.618;2023-05-16T15:38:23;11.90;94.60
27368;DHT22;14839;48.106;11.618;2023-05-16T15:40:49;11.90;94.60
27368;DHT22;14839;48.106;11.618;2023-05-16T15:43:15;12.00;94.60
27368;DHT22;14839;48.106;11.618;2023-05-16T15:45:42;12.00;94.60
27368;DHT22;14839;48.106;11.618;2023-05-16T15:48:08;12.00;94.60
27368;DHT22;14839;48.106;11.618;2023-05-16T15:50:34;11.90;94.60
27368;DHT22;14839;48.106;11.618;2023-05-16T15:53:00;11.80;94.60
27368;DHT22;14839;48.106;11.618;2023-05-16T15:55:25;11.80;94.60
27368;DHT22;14839;48.106;11.618;2023-05-16T15:57:51;11.80;94.60
27368;DHT22;14839;48.106;11.618;2023-05-16T16:00:21;11.70;94.60
27368;DHT22;14839;48.106;11.618;2023-05-16T16:02:47;11.70;94.60
27368;DHT22;14839;48.106;11.618;2023-05-16T16:05:13;11.70;94.60
27368;DHT22;14839;48.106;11.618;2023-05-16T16:07:39;11.70;94.60
27368;DHT22;14839;48.106;11.618;2023-05-16T16:10:05;11.80;94.60
27368;DHT22;14839;48.106;11.618;2023-05-16T16:12:31;11.90;94.60
27368;DHT22;14839;48.106;11.618;2023-05-16T16:14:56;11.90;94.60
27368;DHT22;14839;48.106;11.618;2023-05-16T16:17:22;11.80;94.60
27368;DHT22;14839;48.106;11.618;2023-05-16T16:19:47;11.80;94.60
27368;DHT22;14839;48.106;11.618;2023-05-16T16:22:13;11.70;94.60
27368;DHT22;14839;48.106;11.618;2023-05-16T16:24:38;11.70;94.60
27368;DHT22;14839;48.106;11.618;2023-05-16T16:27:04;11.70;94.60
27368;DHT22;14839;48.106;11.618;2023-05-16T16:29:30;11.70;94.60
27368;DHT22;14839;48.106;11.618;2023-05-16T16:31:56;11.60;94.60
27368;DHT22;14839;48.106;11.618;2023-05-16T16:34:21;11.60;94.60
27368;DHT22;14839;48.106;11.618;2023-05-16T16:36:47;11.60;94.60
27368;DHT22;14839;48.106;11.618;2023-05-16T16:39:13;11.60;94.60
27368;DHT22;14839;48.106;11.618;2023-05-16T16:41:39;11.60;94.60
27368;DHT22;14839;48.106;11.618;2023-05-16T16:44:05;11.60;94.60
27368;DHT22;14839;48.106;11.618;2023-05-16T16:46:30;11.60;94.60
27368;DHT22;14839;48.106;11.618;2023-05-16T16:48:56;11.50;94.60
27368;DHT22;14839;48.106;11.618;2023-05-16T16:51:22;11.50;94.60
27368;DHT22;14839;48.106;11.618;2023-05-16T16:53:48;11.50;94.60
27368;DHT22;14839;48.106;11.618;2023-05-16T16:56:14;11.60;94.60
27368;DHT22;14839;48.106;11.618;2023-05-16T16:58:40;11.50;94.60
27368;DHT22;14839;48.106;11.618;2023-05-16T17:01:06;11.60;94.60
27368;DHT22;14839;48.106;11.618;2023-05-16T17:03:31;11.50;94.60
27368;DHT22;14839;48.106;11.618;2023-05-16T17:05:57;11.50;94.60
27368;DHT22;14839;48.106;11.618;2023-05-16T17:08:23;11.50;94.60
27368;DHT22;14839;48.106;11.618;2023-05-16T17:10:49;11.60;94.60
27368;DHT22;14839;48.106;11.618;2023-05-16T17:13:15;11.50;94.60
27368;DHT22;14839;48.106;11.618;2023-05-16T17:15:42;11.60;94.60
27368;DHT22;14839;48.106;11.618;2023-05-16T17:18:08;11.60;94.60
27368;DHT22;14839;48.106;11.618;2023-05-16T17:20:35;11.60;94.60
27368;DHT22;14839;48.106;11.618;2023-05-16T17:23:01;11.60;94.60
27368;DHT22;14839;48.106;11.618;2023-05-16T17:25:27;11.70;94.60
27368;DHT22;14839;48.106;11.618;2023-05-16T17:27:54;11.60;94.60
27368;DHT22;14839;48.106;11.618;2023-05-16T17:30:20;11.70;94.60
27368;DHT22;14839;48.106;11.618;2023-05-16T17:32:46;11.70;94.60
27368;DHT22;14839;48.106;11.618;2023-05-16T17:35:12;11.60;94.60
27368;DHT22;14839;48.106;11.618;2023-05-16T17:37:38;11.60;94.60
27368;DHT22;14839;48.106;11.618;2023-05-16T17:40:05;11.70;94.60
27368;DHT22;14839;48.106;11.618;2023-05-16T17:42:32;11.70;94.60
27368;DHT22;14839;48.106;11.618;2023-05-16T17:44:57;11.70;94.60
27368;DHT22;14839;48.106;11.618;2023-05-16T17:47:28;11.70;94.60
27368;DHT22;14839;48.106;11.618;2023-05-16T17:49:54;11.70;94.60
27368;DHT22;14839;48.106;11.618;2023-05-16T17:52:19;11.60;94.60
27368;DHT22;14839;48.106;11.618;2023-05-16T17:54:47;11.60;94.60
27368;DHT22;14839;48.106;11.618;2023-05-16T17:57:16;11.70;94.60
27368;DHT22;14839;48.106;11.618;2023-05-16T17:59:41;11.70;94.60
27368;DHT22;14839;48.106;11.618;2023-05-16T18:02:07;11.70;94.60
27368;DHT22;14839;48.106;11.618;2023-05-16T18:04:34;11.70;94.60
27368;DHT22;14839;48.106;11.618;2023-05-16T18:07:01;11.60;94.60
27368;DHT22;14839;48.106;11.618;2023-05-16T18:09:27;11.50;94.60
27368;DHT22;14839;48.106;11.618;2023-05-16T18:11:53;11.50;94.60
27368;DHT22;14839;48.106;11.618;2023-05-16T18:14:19;11.40;94.60
27368;DHT22;14839;48.106;11.618;2023-05-16T18:16:45;11.40;94.60
27368;DHT22;14839;48.106;11.618;2023-05-16T18:19:10;11.30;94.60
27368;DHT22;14839;48.106;11.618;2023-05-16T18:21:37;11.30;94.60
27368;DHT22;14839;48.106;11.618;2023-05-16T18:24:04;11.30;94.60
27368;DHT22;14839;48.106;11.618;2023-05-16T18:26:32;11.20;94.60
27368;DHT22;14839;48.106;11.618;2023-05-16T18:28:58;11.20;94.60
27368;DHT22;14839;48.106;11.618;2023-05-16T18:31:24;11.20;94.60
27368;DHT22;14839;48.106;11.618;2023-05-16T18:33:50;11.20;94.60
27368;DHT22;14839;48.106;11.618;2023-05-16T18:36:16;11.20;94.60
27368;DHT22;14839;48.106;11.618;2023-05-16T18:38:41;11.10;94.60
27368;DHT22;14839;48.106;11.618;2023-05-16T18:41:07;11.10;94.60
27368;DHT22;14839;48.106;11.618;2023-05-16T18:43:33;11.10;94.60
27368;DHT22;14839;48.106;11.618;2023-05-16T18:46:02;11.00;94.60
27368;DHT22;14839;48.106;11.618;2023-05-16T18:48:28;11.00;94.60
27368;DHT22;14839;48.106;11.618;2023-05-16T18:50:53;11.00;94.60
27368;DHT22;14839;48.106;11.618;2023-05-16T18:53:20;11.00;94.60
27368;DHT22;14839;48.106;11.618;2023-05-16T18:55:45;10.90;94.60
27368;DHT22;14839;48.106;11.618;2023-05-16T18:58:13;10.90;94.60
27368;DHT22;14839;48.106;11.618;2023-05-16T19:00:38;10.90;94.60
27368;DHT22;14839;48.106;11.618;2023-05-16T19:03:04;10.90;94.60
27368;DHT22;14839;48.106;11.618;2023-05-16T19:05:30;10.80;94.60
27368;DHT22;14839;48.106;11.618;2023-05-16T19:07:58;10.80;94.60
27368;DHT22;14839;48.106;11.618;2023-05-16T19:10:24;10.80;94.60
27368;DHT22;14839;48.106;11.618;2023-05-16T19:12:50;10.80;94.60
27368;DHT22;14839;48.106;11.618;2023-05-16T19:15:15;10.80;94.60
27368;DHT22;14839;48.106;11.618;2023-05-16T19:17:41;10.80;94.60
27368;DHT22;14839;48.106;11.618;2023-05-16T19:20:08;10.80;94.60
27368;DHT22;14839;48.106;11.618;2023-05-16T19:22:34;10.80;94.60
27368;DHT22;14839;48.106;11.618;2023-05-16T19:25:00;10.80;94.60
27368;DHT22;14839;48.106;11.618;2023-05-16T19:27:26;10.70;94.60
27368;DHT22;14839;48.106;11.618;2023-05-16T19:29:53;10.70;94.60
27368;DHT22;14839;48.106;11.618;2023-05-16T19:32:19;10.70;94.60
27368;DHT22;14839;48.106;11.618;2023-05-16T19:34:45;10.60;94.60